Terminal Aerodrome Forecast
Issued by NWS

Home | Current Version | Previous Version | Text Only | Print | Product List | Glossary On
Versions: 1 2 3 4 5 6 7 8 9 10 11 12 13 14 15 16 17 18 19
985
FTUS43 KGRR 301748
TAFAZO
TAF
KAZO 301748Z 3018/0118 10008KT P6SM VCSH OVC045
     FM302130 10007KT 6SM -RA BR OVC025
     FM302300 10006KT 4SM -RA BR OVC025
     FM010100 08006KT 3SM BR VCSH OVC003
     FM011400 06005KT 6SM BR VCSH OVC008=

USA.gov is the U.S. government's official web portal to all federal, state and local government web resources and services.